Flight Track Log - Related Links

Times and Time Zones

All times are in EDT time to prevent confusion due to time zone crossing. See the SKW6345 flight status page for this flight to view local times or setup timezone preferences in your user account.

Time Position Orientation Groundspeed Altitude Reporting Facility
EDT Latitude Longitude Course Direction KTS MPH feet Rate Location/Type
Sat 12:02:14 PM 37.6333 -122.3667 38° Northeast 162 186 800  Level Northern Cal TRACON
Sat 12:03:14 PM 37.6667 -122.3167 50° Northeast 214 246 2,700 1,850 Climbing Northern Cal TRACON
Sat 12:04:14 PM 37.7167 -122.2500 47° Northeast 275 316 4,500 2,011 Climbing Northern Cal TRACON
Sat 12:06:00 PM 37.8691 -122.1142 38° Northeast  Level FlightAware Approximate
Sat 12:06:19 PM 37.8433 -122.1244 38° Northeast 281 323 8,900  Level Oakland Center
Sat 12:07:00 PM 37.9884 -121.9949 38° Northeast  Level FlightAware Approximate
Sat 12:07:20 PM 37.9089 -122.0633 36° Northeast 294 338 11,300  Level Oakland Center
Sat 12:08:22 PM 37.9811 -121.9950 37° Northeast 328 377 12,300 1,366 Climbing Oakland Center
Sat 12:09:23 PM 38.0600 -121.9206 37° Northeast 352 405 14,100 1,659 Climbing Oakland Center
Sat 12:10:25 PM 38.1397 -121.8428 37° Northeast 362 417 15,700 1,463 Climbing Oakland Center
Sat 12:11:26 PM 38.2206 -121.7592 39° Northeast 373 429 17,100 1,415 Climbing Oakland Center
Sat 12:12:28 PM 38.3194 -121.6547 40° Northeast 393 452 18,600 1,366 Climbing Oakland Center
Sat 12:13:29 PM 38.4142 -121.5839 30° Northeast 394 453 19,900 1,171 Climbing Oakland Center
Sat 12:14:31 PM 38.4872 -121.4753 49° Northeast 406 467 21,000 1,024 Climbing Oakland Center
Sat 12:15:32 PM 38.5558 -121.3592 53° Northeast 411 473 22,000 976 Climbing Oakland Center
Sat 12:16:34 PM 38.6286 -121.2392 52° Northeast 424 488 23,000 976 Climbing Oakland Center
Sat 12:17:35 PM 38.7014 -121.1147 53° Northeast 423 487 24,000 927 Climbing Oakland Center
Sat 12:18:37 PM 38.7753 -120.9917 52° Northeast 432 497 24,900 829 Climbing Oakland Center
Sat 12:19:38 PM 38.8442 -120.8639 55° Northeast 435 501 25,700 732 Climbing Oakland Center
Sat 12:20:40 PM 38.9186 -120.7381 53° Northeast 441 507 26,400 732 Climbing Oakland Center
Sat 12:21:41 PM 39.0081 -120.5825 53° Northeast 450 518 27,200 732 Climbing Oakland Center
Sat 12:22:43 PM 39.0822 -120.4525 54° Northeast 451 519 27,900 634 Climbing Oakland Center
Sat 12:23:44 PM 39.1589 -120.3214 53° Northeast 456 525 28,500 683 Climbing Oakland Center
Sat 12:24:46 PM 39.2314 -120.1894 55° Northeast 452 520 29,300 732 Climbing Oakland Center
Sat 12:25:47 PM 39.3075 -120.0519 54° Northeast 456 525 30,000 585 Climbing Oakland Center
Sat 12:26:49 PM 39.3836 -119.9208 53° Northeast 455 524 30,500 537 Climbing Oakland Center
Sat 12:27:50 PM 39.4586 -119.7894 53° Northeast 454 522 31,100 585 Climbing Oakland Center
Sat 12:28:52 PM 39.5378 -119.6578 52° Northeast 458 527 31,700 585 Climbing Oakland Center
Sat 12:29:53 PM 39.6536 -119.5839 26° Northeast 460 529 32,300 585 Climbing Oakland Center
Sat 12:30:55 PM 39.7719 -119.5175 23° Northeast 461 531 32,900 341 Climbing Oakland Center
Sat 12:31:56 PM 39.8925 -119.4519 23° Northeast 465 535 33,000 49 Climbing Oakland Center
Sat 12:32:58 PM 40.0392 -119.3708 23° Northeast 473 544 33,000  Level Oakland Center
Sat 12:33:59 PM 40.1625 -119.3011 23° Northeast 478 550 33,000  Level Oakland Center
Sat 12:35:01 PM 40.2867 -119.2311 23° Northeast 483 556 33,000  Level Oakland Center
Sat 12:36:02 PM 40.4139 -119.1581 24° Northeast 493 567 33,000  Level Oakland Center
Sat 12:37:04 PM 40.5400 -119.0856 24° Northeast 495 570 33,000  Level Oakland Center
Sat 12:38:05 PM 40.6667 -119.0122 24° Northeast 496 571 33,000  Level Oakland Center
Sat 12:39:07 PM 40.7956 -118.9383 23° Northeast 501 577 33,000  Level Oakland Center
Sat 12:40:08 PM 40.9392 -118.8550 24° Northeast 501 577 33,000  Level Oakland Center
Sat 12:41:10 PM 41.0617 -118.7817 24° Northeast 502 578 33,000  Level Oakland Center
Sat 12:42:11 PM 41.1619 -118.6686 40° Northeast 495 570 33,000  Level Oakland Center
Sat 12:43:12 PM 41.2686 -118.5236 46° Northeast 490 564 33,000  Level Oakland Center
Sat 12:44:14 PM 41.3586 -118.4011 46° Northeast 485 558 33,000  Level Oakland Center
Sat 12:45:15 PM 41.4503 -118.2772 45° Northeast 487 560 33,000  Level Oakland Center
Sat 12:46:46 PM 41.6000 -118.0753 45° Northeast 482 555 33,000  Level Salt Lake Center
Sat 12:47:48 PM 41.6881 -117.9519 46° Northeast 479 551 33,000  Level Salt Lake Center
Sat 12:48:50 PM 41.7917 -117.8086 46° Northeast 478 550 33,000  Level Salt Lake Center
Sat 12:49:53 PM 41.8806 -117.6789 47° Northeast 491 565 33,000  Level Salt Lake Center
Sat 12:50:55 PM 41.9822 -117.5386 46° Northeast 472 543 33,000  Level Salt Lake Center
Sat 12:51:57 PM 42.0694 -117.4194 45° Northeast 466 536 33,000  Level Salt Lake Center
Sat 12:52:59 PM 42.1722 -117.2703 47° Northeast 478 550 33,000  Level Salt Lake Center
Sat 12:54:01 PM 42.2594 -117.1461 46° Northeast 476 548 33,000  Level Salt Lake Center
Sat 12:55:03 PM 42.3575 -117.0039 47° Northeast 478 550 33,000  Level Salt Lake Center
Sat 12:56:05 PM 42.4433 -116.8819 46° Northeast 468 539 33,000  Level Salt Lake Center
Sat 12:57:07 PM 42.5439 -116.7356 47° Northeast 474 545 33,000  Level Salt Lake Center
Sat 12:58:09 PM 42.6289 -116.6122 47° Northeast 469 540 33,000  Level Salt Lake Center
Sat 12:59:11 PM 42.7272 -116.4686 47° Northeast 464 534 33,000  Level Salt Lake Center
Sat 01:00:13 PM 42.8122 -116.3425 47° Northeast 471 542 33,000  Level Salt Lake Center
Sat 01:01:15 PM 42.9114 -116.1981 47° Northeast 470 541 33,000  Level Salt Lake Center
Sat 01:02:17 PM 42.9953 -116.0744 47° Northeast 465 535 33,000  Level Salt Lake Center
Sat 01:03:19 PM 43.0936 -115.9311 47° Northeast 463 533 33,000  Level Salt Lake Center
Sat 01:04:21 PM 43.1783 -115.8036 48° Northeast 471 542 33,000  Level Salt Lake Center
Sat 01:05:23 PM 43.2603 -115.6789 48° Northeast 463 533 33,000  Level Salt Lake Center
Sat 01:06:25 PM 43.3561 -115.5322 48° Northeast 463 533 33,000  Level Salt Lake Center
Sat 01:07:27 PM 43.4378 -115.4053 48° Northeast 464 534 33,000  Level Salt Lake Center
Sat 01:08:29 PM 43.5342 -115.2603 47° Northeast 461 531 33,000  Level Salt Lake Center
Sat 01:09:31 PM 43.6158 -115.1342 48° Northeast 462 532 33,000  Level Salt Lake Center
Sat 01:10:33 PM 43.7106 -114.9892 48° Northeast 458 527 33,000  Level Salt Lake Center
Sat 01:11:35 PM 43.7908 -114.8628 49° Northeast 457 526 33,000  Level Salt Lake Center
Sat 01:12:38 PM 43.8858 -114.7181 48° Northeast 456 525 33,000  Level Salt Lake Center
Sat 01:13:40 PM 43.9672 -114.5922 48° Northeast 459 528 33,000  Level Salt Lake Center
Sat 01:14:42 PM 44.0597 -114.4469 48° Northeast 452 520 33,000  Level Salt Lake Center
Sat 01:15:44 PM 44.1411 -114.3206 48° Northeast 457 526 33,000  Level Salt Lake Center
Sat 01:16:46 PM 44.2339 -114.1739 49° Northeast 456 525 33,000  Level Salt Lake Center
Sat 01:17:48 PM 44.3156 -114.0461 48° Northeast 460 529 33,000  Level Salt Lake Center
Sat 01:18:50 PM 44.4097 -113.8994 48° Northeast 459 528 33,000  Level Salt Lake Center
Sat 01:19:52 PM 44.4900 -113.7711 49° Northeast 459 528 33,000  Level Salt Lake Center
Sat 01:20:54 PM 44.5853 -113.6208 48° Northeast 461 531 33,000  Level Salt Lake Center
Sat 01:21:56 PM 44.6661 -113.4922 49° Northeast 461 531 33,000  Level Salt Lake Center
Sat 01:22:58 PM 44.7603 -113.3394 49° Northeast 461 531 33,000  Level Salt Lake Center
Sat 01:24:00 PM 44.8414 -113.2092 49° Northeast 462 532 33,000  Level Salt Lake Center
Sat 01:25:02 PM 44.9356 -113.0567 49° Northeast 462 532 33,000  Level Salt Lake Center
Sat 01:26:04 PM 45.0169 -112.9264 49° Northeast 462 532 33,000  Level Salt Lake Center
Sat 01:27:06 PM 45.0961 -112.7956 49° Northeast 459 528 33,000  Level Salt Lake Center
Sat 01:28:08 PM 45.1922 -112.6406 49° Northeast 463 533 33,000 -1,016 Level Salt Lake Center
Sat 01:29:10 PM 45.2661 -112.4983 54° Northeast 470 541 30,900 -2,661 Descending Salt Lake Center
Sat 01:30:12 PM 45.3417 -112.3092 60° Northeast 491 565 27,500 -3,000 Descending Salt Lake Center
Sat 01:31:14 PM 45.4025 -112.1547 61° Northeast 478 550 24,700 -2,855 Descending Salt Lake Center
Sat 01:32:16 PM 45.4622 -111.9967 62° Northeast 456 525 21,600 -3,242 Descending Salt Lake Center
Sat 01:33:18 PM 45.5206 -111.8469 61° Northeast 438 504 18,000 -3,823 Descending Salt Lake Center
Sat 01:34:20 PM 45.5867 -111.6739 61° Northeast 418 481 13,700 -2,419 Descending Salt Lake Center
Sat 01:35:22 PM 45.6353 -111.5464 61° Northeast 370 426 13,000 -677 Descending Salt Lake Center
Sat 01:36:24 PM 45.6564 -111.4322 75° East 319 367 12,300 -968 Descending Salt Lake Center
Sat 01:37:26 PM 45.6719 -111.3344 77° East 272 313 11,000 -1,355 Descending Salt Lake Center
Sat 01:38:28 PM 45.6822 -111.2442 81° East 250 288 9,500 -1,536 Descending Salt Lake Center
Sat 01:39:31 PM 45.6919 -111.1381 82° East 235 270 7,800 -1,680 Descending Salt Lake Center
Sat 01:40:33 PM 45.7275 -111.0986 38° Northeast 191 220 6,000 -1,452 Descending Salt Lake Center
Sat 01:41:35 PM 45.7614 -111.1300 327° Northwest 166 191 4,800 -1,161 Descending Salt Lake Center

Login

Don't have an account? Register now (free) for customized features, flight alerts, and more!